createdAt,value
2019-05-22T00:01:20.514Z,15.24
2019-05-22T00:04:06.873Z,15.24
2019-05-22T00:06:41.235Z,15.26
2019-05-22T00:09:16.330Z,15.32
2019-05-22T00:11:48.548Z,15.27
2019-05-22T00:14:19.667Z,15.23
2019-05-22T00:16:50.150Z,15.16
2019-05-22T00:19:20.563Z,15.15
2019-05-22T00:21:51.670Z,15.16
2019-05-22T00:24:22.994Z,15.14
2019-05-22T00:26:54.100Z,15.17
2019-05-22T00:29:24.427Z,15.06
2019-05-22T00:31:54.858Z,15.02
2019-05-22T00:34:25.852Z,14.99
2019-05-22T00:36:56.803Z,15.01
2019-05-22T00:39:27.865Z,14.97
2019-05-22T00:41:58.279Z,14.99
2019-05-22T00:44:29.607Z,14.89
2019-05-22T00:47:01.146Z,14.89
2019-05-22T00:49:33.360Z,14.87
2019-05-22T00:52:04.365Z,14.66
2019-05-22T00:54:44.183Z,14.66
2019-05-22T00:57:24.391Z,14.77
2019-05-22T00:59:55.385Z,14.81
2019-05-22T01:02:31.161Z,14.78
2019-05-22T01:05:02.684Z,14.75
2019-05-22T01:07:37.249Z,14.70
2019-05-22T01:10:11.322Z,14.67
2019-05-22T01:12:43.164Z,14.36
2019-05-22T01:15:19.919Z,14.35
2019-05-22T01:17:51.244Z,14.25
2019-05-22T01:23:02.383Z,13.91
2019-05-22T01:25:34.077Z,14.01
2019-05-22T01:28:06.390Z,14.02
2019-05-22T01:30:38.688Z,13.91
2019-05-22T01:33:12.293Z,13.86
2019-05-22T01:35:56.094Z,13.73
2019-05-22T01:38:25.945Z,13.70
2019-05-22T01:43:55.706Z,13.50
2019-05-22T01:46:28.320Z,13.35
2019-05-22T01:49:01.344Z,13.47
2019-05-22T01:51:30.779Z,13.48
2019-05-22T01:54:00.948Z,13.43
2019-05-22T01:56:33.531Z,13.49
2019-05-22T01:59:04.651Z,13.41
2019-05-22T02:01:34.062Z,13.34
2019-05-22T02:04:05.071Z,13.36
2019-05-22T02:06:34.482Z,13.43
2019-05-22T02:09:17.332Z,13.42
2019-05-22T02:11:49.660Z,13.39
2019-05-22T02:14:22.364Z,13.45
2019-05-22T02:16:56.938Z,13.37
2019-05-22T02:19:24.547Z,13.38
2019-05-22T02:21:55.243Z,13.30
2019-05-22T02:24:25.268Z,13.06
2019-05-22T02:26:54.701Z,12.99
2019-05-22T02:29:24.129Z,13.00
2019-05-22T02:31:55.809Z,12.81
2019-05-22T02:34:26.325Z,12.55
2019-05-22T02:36:57.877Z,12.43
2019-05-22T02:39:32.915Z,12.42
2019-05-22T02:42:08.508Z,12.55
2019-05-22T02:44:38.249Z,12.48
2019-05-22T02:47:19.018Z,12.51
2019-05-22T02:49:41.460Z,12.54
2019-05-22T02:52:11.480Z,12.38
2019-05-22T02:54:40.904Z,12.28
2019-05-22T02:57:11.956Z,12.19
2019-05-22T02:59:42.435Z,12.15
2019-05-22T03:02:14.151Z,11.97
2019-05-22T03:04:56.246Z,11.88
2019-05-22T03:07:27.506Z,11.87
2019-05-22T03:09:57.331Z,11.99
2019-05-22T03:12:29.932Z,12.19
2019-05-22T03:15:01.397Z,12.34
2019-05-22T03:17:31.565Z,12.45
2019-05-22T03:20:04.726Z,12.54
2019-05-22T03:22:40.933Z,12.60
2019-05-22T03:25:13.647Z,12.66
2019-05-22T03:27:46.876Z,13.07
2019-05-22T03:30:43.970Z,13.71
2019-05-22T03:33:13.517Z,14.59
2019-05-22T03:35:46.350Z,15.40
2019-05-22T03:38:18.171Z,15.95
2019-05-22T03:40:51.011Z,16.38
2019-05-22T03:43:27.080Z,16.66
2019-05-22T03:45:57.290Z,16.83
2019-05-22T03:48:29.627Z,16.65
2019-05-22T03:51:07.931Z,17.23
2019-05-22T03:53:38.280Z,17.83
2019-05-22T03:56:07.692Z,18.15
2019-05-22T03:58:37.334Z,18.35
2019-05-22T04:01:08.259Z,17.72
2019-05-22T04:03:38.622Z,17.64
2019-05-22T04:06:10.047Z,17.94
2019-05-22T04:08:39.544Z,18.13
2019-05-22T04:11:13.202Z,17.61
2019-05-22T04:13:42.731Z,16.94
2019-05-22T04:16:13.821Z,16.42
2019-05-22T04:18:44.404Z,16.28
2019-05-22T04:21:13.836Z,16.49
2019-05-22T04:23:43.380Z,16.63
2019-05-22T04:26:13.881Z,16.53
2019-05-22T04:29:09.824Z,16.36
2019-05-22T04:31:58.943Z,16.57
2019-05-22T04:34:29.084Z,16.97
2019-05-22T04:36:58.524Z,17.26
2019-05-22T04:39:29.685Z,17.52
2019-05-22T04:42:01.009Z,17.80
2019-05-22T04:44:31.031Z,17.93
2019-05-22T04:47:01.145Z,18.14
2019-05-22T04:49:31.261Z,18.15
2019-05-22T04:52:00.824Z,17.99
2019-05-22T04:54:30.343Z,18.12
2019-05-22T04:56:59.766Z,18.46
2019-05-22T04:59:30.400Z,18.13
2019-05-22T05:01:59.908Z,18.56
2019-05-22T05:04:29.552Z,18.76
2019-05-22T05:06:59.185Z,18.79
2019-05-22T05:09:29.930Z,19.29
2019-05-22T05:11:59.382Z,19.25
2019-05-22T05:14:29.195Z,19.13
2019-05-22T05:16:58.627Z,19.01
2019-05-22T05:19:28.232Z,19.33
2019-05-22T05:21:57.693Z,19.48
2019-05-22T05:24:27.122Z,19.89
2019-05-22T05:26:58.021Z,19.84
2019-05-22T05:29:46.724Z,19.78
2019-05-22T05:32:16.365Z,19.78
2019-05-22T05:34:52.228Z,20.04
2019-05-22T05:37:23.226Z,20.73
2019-05-22T05:40:04.562Z,20.73
2019-05-22T05:42:34.074Z,20.68
2019-05-22T05:45:04.008Z,20.52
2019-05-22T05:47:33.637Z,21.07
2019-05-22T05:50:03.765Z,21.07
2019-05-22T05:52:33.122Z,21.49
2019-05-22T05:55:03.320Z,21.81
2019-05-22T05:57:38.942Z,22.63
2019-05-22T06:00:24.561Z,22.64
2019-05-22T06:02:56.974Z,22.90
2019-05-22T06:05:26.339Z,22.90
2019-05-22T06:07:55.689Z,22.70
2019-05-22T06:10:28.358Z,22.82
2019-05-22T06:12:58.775Z,22.82
2019-05-22T06:16:00.948Z,23.12
2019-05-22T06:18:34.871Z,23.25
2019-05-22T06:21:06.183Z,23.25
2019-05-22T06:24:00.308Z,23.49
2019-05-22T06:26:38.342Z,23.71
2019-05-22T06:29:08.176Z,23.71
2019-05-22T06:31:47.013Z,23.92
2019-05-22T06:34:16.869Z,24.24
2019-05-22T06:36:46.688Z,24.24
2019-05-22T06:39:17.220Z,24.73
2019-05-22T06:41:48.354Z,24.50
2019-05-22T06:44:30.226Z,24.50
2019-05-22T06:47:00.082Z,24.33
2019-05-22T06:49:34.856Z,24.54
2019-05-22T06:52:08.276Z,24.83
2019-05-22T06:54:38.516Z,25.30
2019-05-22T06:57:13.806Z,25.60
2019-05-22T06:59:43.733Z,25.64
2019-05-22T07:02:16.325Z,25.85
2019-05-22T07:04:46.354Z,25.87
2019-05-22T07:07:15.657Z,25.85
2019-05-22T07:09:45.692Z,26.10
2019-05-22T07:12:18.234Z,25.84
2019-05-22T07:15:02.571Z,26.13
2019-05-22T07:17:31.746Z,26.64
2019-05-22T07:20:02.430Z,26.48
2019-05-22T07:22:32.555Z,26.93
2019-05-22T07:25:01.763Z,26.89
2019-05-22T07:27:31.781Z,27.13
2019-05-22T07:30:00.900Z,27.29
2019-05-22T07:32:31.221Z,27.64
2019-05-22T07:35:00.438Z,27.55
2019-05-22T07:37:30.272Z,27.64
2019-05-22T07:39:59.315Z,27.33
2019-05-22T07:42:28.485Z,27.21
2019-05-22T07:44:57.533Z,27.23
2019-05-22T07:47:27.068Z,27.92
2019-05-22T07:49:56.110Z,27.95
2019-05-22T07:52:25.568Z,28.06
2019-05-22T07:54:54.710Z,27.91
2019-05-22T07:57:24.729Z,28.09
2019-05-22T07:59:54.056Z,28.05
2019-05-22T08:02:25.679Z,28.17
2019-05-22T08:04:55.092Z,28.09
2019-05-22T08:07:28.394Z,28.53
2019-05-22T08:09:57.509Z,28.73
2019-05-22T08:12:27.543Z,28.73
2019-05-22T08:14:56.741Z,28.85
2019-05-22T08:17:27.336Z,28.96
2019-05-22T08:19:56.384Z,29.22
2019-05-22T08:22:26.103Z,29.23
2019-05-22T08:24:55.658Z,29.62
2019-05-22T08:27:24.768Z,29.28
2019-05-22T08:29:57.023Z,28.86
2019-05-22T08:32:26.140Z,29.26
2019-05-22T08:34:55.286Z,29.20
2019-05-22T08:37:30.112Z,29.71
2019-05-22T08:40:00.947Z,30.14
2019-05-22T08:42:31.734Z,30.32
2019-05-22T08:45:01.756Z,30.42
2019-05-22T08:47:30.816Z,30.53
2019-05-22T08:50:00.339Z,30.61
2019-05-22T08:52:30.546Z,30.68
2019-05-22T08:55:00.165Z,30.52
2019-05-22T08:57:30.199Z,30.70
2019-05-22T08:59:59.623Z,29.86
2019-05-22T09:02:28.941Z,30.65
2019-05-22T09:04:58.530Z,30.45
2019-05-22T09:07:27.852Z,30.14
2019-05-22T09:09:57.386Z,30.49
2019-05-22T09:12:26.622Z,30.64
2019-05-22T09:14:55.751Z,31.00
2019-05-22T09:17:24.983Z,31.05
2019-05-22T09:19:54.061Z,31.74
2019-05-22T09:22:37.816Z,31.44
2019-05-22T09:24:53.952Z,31.34
2019-05-22T09:27:23.279Z,31.12
2019-05-22T09:29:52.508Z,31.35
2019-05-22T09:32:21.578Z,31.35
2019-05-22T09:34:51.094Z,31.40
2019-05-22T09:37:20.225Z,31.56
2019-05-22T09:39:49.769Z,31.94
2019-05-22T09:42:19.233Z,31.86
2019-05-22T09:44:48.452Z,31.65
2019-05-22T09:47:20.503Z,31.61
2019-05-22T09:49:49.638Z,31.03
2019-05-22T09:52:18.966Z,31.48
2019-05-22T09:54:48.479Z,31.55
2019-05-22T09:57:17.921Z,32.12
2019-05-22T09:59:46.981Z,32.41
2019-05-22T10:02:16.402Z,32.63
2019-05-22T10:04:45.751Z,32.81
2019-05-22T10:07:15.272Z,32.38
2019-05-22T10:09:44.623Z,32.82
2019-05-22T10:12:13.749Z,33.18
2019-05-22T10:14:43.454Z,32.62
2019-05-22T10:17:13.106Z,32.58
2019-05-22T10:19:42.715Z,32.50
2019-05-22T10:22:11.947Z,32.39
2019-05-22T10:24:41.395Z,32.39
2019-05-22T10:27:11.512Z,32.99
2019-05-22T10:29:40.676Z,32.36
2019-05-22T10:32:10.007Z,32.98
2019-05-22T10:34:39.247Z,33.41
2019-05-22T10:37:09.371Z,33.11
2019-05-22T10:39:40.019Z,33.95
2019-05-22T10:42:09.139Z,33.52
2019-05-22T10:44:38.382Z,33.30
2019-05-22T10:47:08.107Z,33.66
2019-05-22T10:49:37.946Z,33.67
2019-05-22T10:52:07.621Z,33.06
2019-05-22T10:54:36.752Z,32.14
2019-05-22T10:57:06.499Z,32.30
2019-05-22T10:59:35.570Z,32.74
2019-05-22T11:02:04.712Z,32.25
2019-05-22T11:04:34.647Z,31.39
2019-05-22T11:07:06.592Z,31.64
2019-05-22T11:09:36.110Z,32.18
2019-05-22T11:12:06.714Z,33.05
2019-05-22T11:14:36.244Z,33.22
2019-05-22T11:17:05.389Z,33.25
2019-05-22T11:19:34.441Z,33.67
2019-05-22T11:22:05.102Z,33.32
2019-05-22T11:24:34.508Z,33.19
2019-05-22T11:27:03.753Z,33.11
2019-05-22T11:29:33.353Z,33.32
2019-05-22T11:32:03.948Z,33.64
2019-05-22T11:34:33.426Z,33.98
2019-05-22T11:37:03.545Z,34.26
2019-05-22T11:39:39.410Z,34.47
2019-05-22T11:42:05.969Z,34.97
2019-05-22T11:44:35.184Z,34.98
2019-05-22T11:47:06.530Z,35.23
2019-05-22T11:49:36.341Z,35.00
2019-05-22T11:52:06.466Z,34.34
2019-05-22T11:54:36.291Z,35.08
2019-05-22T11:57:05.449Z,35.63
2019-05-22T11:59:36.596Z,35.73
2019-05-22T12:02:07.230Z,35.32
2019-05-22T12:04:47.476Z,34.31
2019-05-22T12:07:07.634Z,33.79
2019-05-22T12:09:37.063Z,33.93
2019-05-22T12:12:06.304Z,33.39
2019-05-22T12:14:35.926Z,34.09
2019-05-22T12:17:06.048Z,34.05
2019-05-22T12:19:35.571Z,33.91
2019-05-22T12:22:05.297Z,33.61
2019-05-22T12:24:37.173Z,33.61
2019-05-22T12:27:06.879Z,33.71
2019-05-22T12:29:38.100Z,34.00
2019-05-22T12:32:09.480Z,34.04
2019-05-22T12:34:38.918Z,33.72
2019-05-22T12:37:08.963Z,34.19
2019-05-22T12:39:40.049Z,33.03
2019-05-22T12:42:11.070Z,32.68
2019-05-22T12:44:41.009Z,32.71
2019-05-22T12:47:11.633Z,32.51
2019-05-22T12:49:40.986Z,32.80
2019-05-22T12:52:10.453Z,32.22
2019-05-22T12:54:46.931Z,32.43
2019-05-22T12:57:11.138Z,33.08
2019-05-22T12:59:41.061Z,32.61
2019-05-22T13:02:11.197Z,32.16
2019-05-22T13:04:41.129Z,32.02
2019-05-22T13:07:10.660Z,32.03
2019-05-22T13:09:40.701Z,32.29
2019-05-22T13:12:12.376Z,31.30
2019-05-22T13:14:41.708Z,31.51
2019-05-22T13:17:12.931Z,30.95
2019-05-22T13:19:42.842Z,31.02
2019-05-22T13:22:15.368Z,31.90
2019-05-22T13:24:44.927Z,32.57
2019-05-22T13:27:17.276Z,32.39
2019-05-22T13:29:48.510Z,32.12
2019-05-22T13:32:20.082Z,32.27
2019-05-22T13:34:50.408Z,31.70
2019-05-22T13:37:19.551Z,31.73
2019-05-22T13:39:48.623Z,32.13
2019-05-22T13:42:18.337Z,32.45
2019-05-22T13:44:48.129Z,32.16
2019-05-22T13:47:17.351Z,32.90
2019-05-22T13:49:47.508Z,33.14
2019-05-22T13:52:16.897Z,32.46
2019-05-22T13:54:46.411Z,32.02
2019-05-22T13:57:15.510Z,32.29
2019-05-22T13:59:44.777Z,32.10
2019-05-22T14:02:14.411Z,31.58
2019-05-22T14:04:44.028Z,31.45
2019-05-22T14:07:13.357Z,31.90
2019-05-22T14:09:43.687Z,32.01
2019-05-22T14:12:13.525Z,32.35
2019-05-22T14:14:43.284Z,32.46
2019-05-22T14:17:14.415Z,33.06
2019-05-22T14:19:43.588Z,32.01
2019-05-22T14:22:12.704Z,32.24
2019-05-22T14:24:41.953Z,32.09
2019-05-22T14:27:11.085Z,32.03
2019-05-22T14:29:40.713Z,32.14
2019-05-22T14:32:10.845Z,32.18
2019-05-22T14:34:40.019Z,31.84
2019-05-22T14:37:11.146Z,31.33
2019-05-22T14:39:40.797Z,31.45
2019-05-22T14:42:10.358Z,31.66
2019-05-22T14:44:39.781Z,32.12
2019-05-22T14:47:14.698Z,32.19
2019-05-22T14:49:40.129Z,31.94
2019-05-22T14:52:10.154Z,31.06
2019-05-22T14:54:39.358Z,31.29
2019-05-22T14:57:08.995Z,31.54
2019-05-22T14:59:38.344Z,31.64
2019-05-22T15:02:08.270Z,31.59
2019-05-22T15:04:37.922Z,30.67
2019-05-22T15:07:08.557Z,30.68
2019-05-22T15:09:37.595Z,30.90
2019-05-22T15:12:06.943Z,30.76
2019-05-22T15:14:36.121Z,30.85
2019-05-22T15:17:05.451Z,30.84
2019-05-22T15:19:34.693Z,30.52
2019-05-22T15:22:05.390Z,30.37
2019-05-22T15:24:34.928Z,30.23
2019-05-22T15:27:05.643Z,30.10
2019-05-22T15:29:34.852Z,29.77
2019-05-22T15:32:04.482Z,29.56
2019-05-22T15:34:34.540Z,29.53
2019-05-22T15:37:04.864Z,29.29
2019-05-22T15:39:35.912Z,29.37
2019-05-22T15:42:06.213Z,29.00
2019-05-22T15:44:35.580Z,28.52
2019-05-22T15:47:05.795Z,28.90
2019-05-22T15:49:35.643Z,29.01
2019-05-22T15:52:09.076Z,29.15
2019-05-22T15:54:38.753Z,29.07
2019-05-22T15:57:09.940Z,28.69
2019-05-22T15:59:40.316Z,28.65
2019-05-22T16:02:11.141Z,28.54
2019-05-22T16:04:41.260Z,28.47
2019-05-22T16:07:11.317Z,28.41
2019-05-22T16:09:43.456Z,28.21
2019-05-22T16:12:13.235Z,28.19
2019-05-22T16:14:42.397Z,28.35
2019-05-22T16:17:12.035Z,28.20
2019-05-22T16:19:41.411Z,27.98
2019-05-22T16:22:11.356Z,27.79
2019-05-22T16:24:41.197Z,27.56
2019-05-22T16:27:12.844Z,27.58
2019-05-22T16:29:42.184Z,27.44
2019-05-22T16:32:14.970Z,27.35
2019-05-22T16:34:44.691Z,27.19
2019-05-22T16:37:14.430Z,27.13
2019-05-22T16:39:44.095Z,27.07
2019-05-22T16:42:13.839Z,27.04
2019-05-22T16:44:43.555Z,27.10
2019-05-22T16:47:13.119Z,26.99
2019-05-22T16:49:42.419Z,26.98
2019-05-22T16:52:14.283Z,26.90
2019-05-22T16:54:45.033Z,26.97
2019-05-22T16:57:15.369Z,26.92
2019-05-22T16:59:46.130Z,26.90
2019-05-22T17:02:18.061Z,26.72
2019-05-22T17:04:48.800Z,26.78
2019-05-22T17:07:18.735Z,26.67
2019-05-22T17:09:49.700Z,26.67
2019-05-22T17:12:18.820Z,26.56
2019-05-22T17:14:49.657Z,26.49
2019-05-22T17:17:20.163Z,26.30
2019-05-22T17:19:50.383Z,26.30
2019-05-22T17:22:20.258Z,26.21
2019-05-22T17:24:49.622Z,26.12
2019-05-22T17:27:20.477Z,26.19
2019-05-22T17:29:51.686Z,26.19
2019-05-22T17:32:22.028Z,26.00
2019-05-22T17:34:51.570Z,25.96
2019-05-22T17:37:21.429Z,25.92
2019-05-22T17:39:51.738Z,25.88
2019-05-22T17:42:23.440Z,25.83
2019-05-22T17:44:53.183Z,25.65
2019-05-22T17:47:24.856Z,25.65
2019-05-22T17:49:54.708Z,25.64
2019-05-22T17:52:26.184Z,25.64
2019-05-22T17:54:56.117Z,25.60
2019-05-22T17:57:25.329Z,25.60
2019-05-22T17:59:55.761Z,25.42
2019-05-22T18:02:26.775Z,25.43
2019-05-22T18:04:56.627Z,25.29
2019-05-22T18:07:26.484Z,25.26
2019-05-22T18:09:55.892Z,25.04
2019-05-22T18:12:25.825Z,25.04
2019-05-22T18:14:56.255Z,24.83
2019-05-22T18:17:26.577Z,24.83
2019-05-22T18:19:56.207Z,24.76
2019-05-22T18:22:25.632Z,24.67
2019-05-22T18:24:55.191Z,24.62
2019-05-22T18:27:25.429Z,24.43
2019-05-22T18:29:55.292Z,24.43
2019-05-22T18:32:24.549Z,24.34
2019-05-22T18:34:54.082Z,24.23
2019-05-22T18:37:23.539Z,24.23
2019-05-22T18:39:53.694Z,24.22
2019-05-22T18:42:24.326Z,24.17
2019-05-22T18:44:53.768Z,24.12
2019-05-22T18:47:23.727Z,23.97
2019-05-22T18:49:53.680Z,23.97
2019-05-22T18:52:38.263Z,24.10
2019-05-22T18:54:54.651Z,24.10
2019-05-22T18:57:24.084Z,24.06
2019-05-22T19:00:00.449Z,24.04
2019-05-22T19:02:25.063Z,23.94
2019-05-22T19:04:54.491Z,23.87
2019-05-22T19:07:23.842Z,23.73
2019-05-22T19:09:53.209Z,23.74
2019-05-22T19:12:22.631Z,23.74
2019-05-22T19:14:52.261Z,23.76
2019-05-22T19:17:22.702Z,23.74
2019-05-22T19:19:52.153Z,23.74
2019-05-22T19:22:21.572Z,23.79
2019-05-22T19:24:52.556Z,23.84
2019-05-22T19:27:21.958Z,23.87
2019-05-22T19:29:51.412Z,23.87
2019-05-22T19:32:21.141Z,23.66
2019-05-22T19:34:50.679Z,23.66
2019-05-22T19:37:20.840Z,23.40
2019-05-22T19:39:50.978Z,23.04
2019-05-22T19:42:20.428Z,22.91
2019-05-22T19:44:49.955Z,22.77
2019-05-22T19:47:20.970Z,22.77
2019-05-22T19:49:50.397Z,22.59
2019-05-22T19:52:22.789Z,22.59
2019-05-22T19:54:52.991Z,22.62
2019-05-22T19:57:22.995Z,22.62
2019-05-22T19:59:52.442Z,22.68
2019-05-22T20:02:23.070Z,22.59
2019-05-22T20:04:52.623Z,22.59
2019-05-22T20:07:22.475Z,22.34
2019-05-22T20:09:51.901Z,22.34
2019-05-22T20:12:24.842Z,22.27
2019-05-22T20:14:52.926Z,22.38
2019-05-22T20:17:22.352Z,22.38
2019-05-22T20:19:52.561Z,22.32
2019-05-22T20:22:22.450Z,22.07
2019-05-22T20:24:51.871Z,22.00
2019-05-22T20:27:21.920Z,21.86
2019-05-22T20:29:51.774Z,21.77
2019-05-22T20:32:22.255Z,21.81
2019-05-22T20:34:51.669Z,21.85
2019-05-22T20:37:21.535Z,21.85
2019-05-22T20:39:50.909Z,21.99
2019-05-22T20:42:21.029Z,22.02
2019-05-22T20:44:51.347Z,21.97
2019-05-22T20:47:24.460Z,21.87
2019-05-22T20:49:54.986Z,21.79
2019-05-22T20:52:24.885Z,21.79
2019-05-22T20:54:54.748Z,21.70
2019-05-22T20:57:25.881Z,21.51
2019-05-22T20:59:56.317Z,21.25
2019-05-22T21:02:27.223Z,21.25
2019-05-22T21:04:56.988Z,20.62
2019-05-22T21:07:36.248Z,20.62
2019-05-22T21:10:09.189Z,20.92
2019-05-22T21:12:39.202Z,20.86
2019-05-22T21:15:08.787Z,20.86
2019-05-22T21:17:38.418Z,20.91
2019-05-22T21:20:12.021Z,20.88
2019-05-22T21:22:42.151Z,20.88
2019-05-22T21:25:12.183Z,20.78
2019-05-22T21:27:42.627Z,20.78
2019-05-22T21:30:12.847Z,20.76
2019-05-22T21:32:44.186Z,20.71
2019-05-22T21:35:16.611Z,20.63
2019-05-22T21:37:46.307Z,20.56
2019-05-22T21:40:17.983Z,20.59
2019-05-22T21:42:48.456Z,20.57
2019-05-22T21:45:18.170Z,20.63
2019-05-22T21:47:47.690Z,20.19
2019-05-22T21:50:17.828Z,20.19
2019-05-22T21:52:47.458Z,20.15
2019-05-22T21:55:19.488Z,20.20
2019-05-22T21:57:48.927Z,20.20
2019-05-22T22:00:40.996Z,20.06
2019-05-22T22:03:19.131Z,20.06
2019-05-22T22:05:49.445Z,20.06
2019-05-22T22:08:18.882Z,20.04
2019-05-22T22:10:49.523Z,20.12
2019-05-22T22:13:19.742Z,20.12
2019-05-22T22:15:49.474Z,20.14
2019-05-22T22:18:19.292Z,20.14
2019-05-22T22:20:49.026Z,20.15
2019-05-22T22:23:18.544Z,20.08
2019-05-22T22:25:47.960Z,20.11
2019-05-22T22:28:18.408Z,20.11
2019-05-22T22:30:52.098Z,20.12
2019-05-22T22:33:29.881Z,20.10
2019-05-22T22:36:01.818Z,20.09
2019-05-22T22:38:33.034Z,19.99
2019-05-22T22:41:02.548Z,19.73
2019-05-22T22:43:33.096Z,19.73
2019-05-22T22:46:06.584Z,19.73
2019-05-22T22:48:38.304Z,19.75
2019-05-22T22:51:12.615Z,19.71
2019-05-22T22:53:43.920Z,19.55
2019-05-22T22:56:15.568Z,19.48
2019-05-22T22:58:45.793Z,19.48
2019-05-22T23:01:18.117Z,19.57
2019-05-22T23:03:50.156Z,19.57
2019-05-22T23:06:20.181Z,19.63
2019-05-22T23:08:50.390Z,19.55
2019-05-22T23:11:21.503Z,19.58
2019-05-22T23:13:52.707Z,19.58
2019-05-22T23:16:23.614Z,19.39
2019-05-22T23:19:25.614Z,19.33
2019-05-22T23:21:55.296Z,19.27
2019-05-22T23:24:26.033Z,19.27
2019-05-22T23:26:55.737Z,19.21
2019-05-22T23:29:25.586Z,19.17
2019-05-22T23:31:56.407Z,19.16
2019-05-22T23:34:26.736Z,19.16
2019-05-22T23:36:58.062Z,19.12
2019-05-22T23:39:30.777Z,18.98
2019-05-22T23:42:03.273Z,18.98
2019-05-22T23:44:36.717Z,18.95
2019-05-22T23:47:07.701Z,18.95
2019-05-22T23:49:39.626Z,18.88
2019-05-22T23:52:10.390Z,18.81
2019-05-22T23:54:41.528Z,18.71
2019-05-22T23:57:12.917Z,18.55
2019-05-22T23:59:42.543Z,18.46
